sensor_id;sensor_type;location;lat;lon;timestamp;P1;durP1;ratioP1;P2;durP2;ratioP2
69779;SDS011;57052;55.602;38.096;2023-06-24T00:01:51;22.42;;;13.68;;
69779;SDS011;57052;55.602;38.096;2023-06-24T00:04:16;23.63;;;13.23;;
69779;SDS011;57052;55.602;38.096;2023-06-24T00:06:45;21.55;;;13.32;;
69779;SDS011;57052;55.602;38.096;2023-06-24T00:09:11;24.23;;;13.25;;
69779;SDS011;57052;55.602;38.096;2023-06-24T00:11:36;21.65;;;13.07;;
69779;SDS011;57052;55.602;38.096;2023-06-24T00:14:02;19.27;;;12.77;;
69779;SDS011;57052;55.602;38.096;2023-06-24T00:16:28;23.02;;;13.38;;
69779;SDS011;57052;55.602;38.096;2023-06-24T00:18:54;21.35;;;13.00;;
69779;SDS011;57052;55.602;38.096;2023-06-24T00:21:26;23.23;;;13.43;;
69779;SDS011;57052;55.602;38.096;2023-06-24T00:24:02;21.95;;;12.45;;
69779;SDS011;57052;55.602;38.096;2023-06-24T00:26:30;21.67;;;12.13;;
69779;SDS011;57052;55.602;38.096;2023-06-24T00:28:57;23.17;;;12.57;;
69779;SDS011;57052;55.602;38.096;2023-06-24T00:31:23;22.48;;;13.43;;
69779;SDS011;57052;55.602;38.096;2023-06-24T00:33:49;22.63;;;12.70;;
69779;SDS011;57052;55.602;38.096;2023-06-24T00:36:17;21.20;;;12.30;;
69779;SDS011;57052;55.602;38.096;2023-06-24T00:38:43;18.52;;;11.73;;
69779;SDS011;57052;55.602;38.096;2023-06-24T00:41:09;18.63;;;11.23;;
69779;SDS011;57052;55.602;38.096;2023-06-24T00:43:35;18.05;;;11.32;;
69779;SDS011;57052;55.602;38.096;2023-06-24T00:46:01;21.20;;;11.48;;
69779;SDS011;57052;55.602;38.096;2023-06-24T00:48:27;19.70;;;12.38;;
69779;SDS011;57052;55.602;38.096;2023-06-24T00:50:53;19.05;;;12.38;;
69779;SDS011;57052;55.602;38.096;2023-06-24T00:53:18;19.63;;;11.85;;
69779;SDS011;57052;55.602;38.096;2023-06-24T00:55:45;22.00;;;12.38;;
69779;SDS011;57052;55.602;38.096;2023-06-24T00:58:12;21.08;;;11.88;;
69779;SDS011;57052;55.602;38.096;2023-06-24T01:00:42;18.67;;;11.07;;
69779;SDS011;57052;55.602;38.096;2023-06-24T01:03:12;19.98;;;11.45;;
69779;SDS011;57052;55.602;38.096;2023-06-24T01:05:39;19.95;;;11.77;;
69779;SDS011;57052;55.602;38.096;2023-06-24T01:08:06;18.10;;;10.93;;
69779;SDS011;57052;55.602;38.096;2023-06-24T01:10:32;18.08;;;11.60;;
69779;SDS011;57052;55.602;38.096;2023-06-24T01:12:58;19.27;;;11.93;;
69779;SDS011;57052;55.602;38.096;2023-06-24T01:15:23;18.13;;;11.32;;
69779;SDS011;57052;55.602;38.096;2023-06-24T01:20:45;19.58;;;11.02;;
69779;SDS011;57052;55.602;38.096;2023-06-24T01:28:58;20.45;;;11.77;;
69779;SDS011;57052;55.602;38.096;2023-06-24T01:31:57;18.48;;;11.45;;
69779;SDS011;57052;55.602;38.096;2023-06-24T01:37:10;22.65;;;10.88;;
69779;SDS011;57052;55.602;38.096;2023-06-24T01:40:29;18.77;;;11.20;;
69779;SDS011;57052;55.602;38.096;2023-06-24T01:42:58;17.27;;;10.93;;
69779;SDS011;57052;55.602;38.096;2023-06-24T01:45:26;21.75;;;11.65;;
69779;SDS011;57052;55.602;38.096;2023-06-24T01:48:06;17.92;;;11.35;;
69779;SDS011;57052;55.602;38.096;2023-06-24T01:50:37;17.85;;;11.07;;
69779;SDS011;57052;55.602;38.096;2023-06-24T01:53:08;20.85;;;11.05;;
69779;SDS011;57052;55.602;38.096;2023-06-24T01:55:34;18.38;;;11.70;;
69779;SDS011;57052;55.602;38.096;2023-06-24T01:58:03;17.83;;;11.15;;
69779;SDS011;57052;55.602;38.096;2023-06-24T02:00:33;19.77;;;10.65;;
69779;SDS011;57052;55.602;38.096;2023-06-24T02:03:00;19.70;;;10.90;;
69779;SDS011;57052;55.602;38.096;2023-06-24T02:05:28;15.93;;;10.32;;
69779;SDS011;57052;55.602;38.096;2023-06-24T02:07:54;16.98;;;10.20;;
69779;SDS011;57052;55.602;38.096;2023-06-24T02:10:22;12.18;;;7.07;;
69779;SDS011;57052;55.602;38.096;2023-06-24T02:12:49;11.77;;;7.10;;
69779;SDS011;57052;55.602;38.096;2023-06-24T02:15:18;12.88;;;7.47;;
69779;SDS011;57052;55.602;38.096;2023-06-24T02:17:45;11.13;;;6.55;;
69779;SDS011;57052;55.602;38.096;2023-06-24T02:20:36;9.07;;;5.97;;
69779;SDS011;57052;55.602;38.096;2023-06-24T02:23:04;8.32;;;5.85;;
69779;SDS011;57052;55.602;38.096;2023-06-24T02:25:34;8.98;;;6.00;;
69779;SDS011;57052;55.602;38.096;2023-06-24T02:43:34;4.28;;;2.97;;
69779;SDS011;57052;55.602;38.096;2023-06-24T02:46:01;6.28;;;3.25;;
69779;SDS011;57052;55.602;38.096;2023-06-24T02:48:29;3.88;;;2.80;;
69779;SDS011;57052;55.602;38.096;2023-06-24T02:50:57;3.80;;;2.67;;
69779;SDS011;57052;55.602;38.096;2023-06-24T02:53:23;3.17;;;2.45;;
69779;SDS011;57052;55.602;38.096;2023-06-24T02:55:50;3.38;;;2.30;;
69779;SDS011;57052;55.602;38.096;2023-06-24T02:58:16;4.30;;;2.88;;
69779;SDS011;57052;55.602;38.096;2023-06-24T03:00:42;6.45;;;2.70;;
69779;SDS011;57052;55.602;38.096;2023-06-24T03:03:09;3.28;;;2.40;;
69779;SDS011;57052;55.602;38.096;2023-06-24T03:05:35;3.85;;;2.55;;
69779;SDS011;57052;55.602;38.096;2023-06-24T03:08:01;3.65;;;2.38;;
69779;SDS011;57052;55.602;38.096;2023-06-24T03:10:29;3.72;;;2.40;;
69779;SDS011;57052;55.602;38.096;2023-06-24T03:12:54;2.85;;;2.00;;
69779;SDS011;57052;55.602;38.096;2023-06-24T03:15:20;3.30;;;2.15;;
69779;SDS011;57052;55.602;38.096;2023-06-24T03:17:46;2.70;;;1.92;;
69779;SDS011;57052;55.602;38.096;2023-06-24T03:20:12;2.47;;;1.83;;
69779;SDS011;57052;55.602;38.096;2023-06-24T03:22:37;3.03;;;1.90;;
69779;SDS011;57052;55.602;38.096;2023-06-24T03:25:03;2.58;;;1.80;;
69779;SDS011;57052;55.602;38.096;2023-06-24T03:27:30;2.78;;;1.98;;
69779;SDS011;57052;55.602;38.096;2023-06-24T03:29:56;3.50;;;2.10;;
69779;SDS011;57052;55.602;38.096;2023-06-24T03:32:22;3.58;;;1.75;;
69779;SDS011;57052;55.602;38.096;2023-06-24T03:34:48;3.40;;;1.75;;
69779;SDS011;57052;55.602;38.096;2023-06-24T03:37:13;2.65;;;1.98;;
69779;SDS011;57052;55.602;38.096;2023-06-24T03:39:39;3.35;;;1.85;;
69779;SDS011;57052;55.602;38.096;2023-06-24T03:42:05;2.50;;;1.77;;
69779;SDS011;57052;55.602;38.096;2023-06-24T03:44:30;3.45;;;1.77;;
69779;SDS011;57052;55.602;38.096;2023-06-24T03:46:56;2.25;;;1.58;;
69779;SDS011;57052;55.602;38.096;2023-06-24T03:49:22;3.80;;;1.88;;
69779;SDS011;57052;55.602;38.096;2023-06-24T03:51:47;2.42;;;1.70;;
69779;SDS011;57052;55.602;38.096;2023-06-24T03:54:13;3.30;;;1.48;;
69779;SDS011;57052;55.602;38.096;2023-06-24T03:56:38;2.75;;;1.50;;
69779;SDS011;57052;55.602;38.096;2023-06-24T03:59:04;2.67;;;1.50;;
69779;SDS011;57052;55.602;38.096;2023-06-24T04:01:30;4.13;;;1.55;;
69779;SDS011;57052;55.602;38.096;2023-06-24T04:03:57;5.97;;;1.70;;
69779;SDS011;57052;55.602;38.096;2023-06-24T04:06:23;2.45;;;1.50;;
69779;SDS011;57052;55.602;38.096;2023-06-24T04:08:49;2.95;;;1.70;;
69779;SDS011;57052;55.602;38.096;2023-06-24T04:11:17;2.60;;;1.30;;
69779;SDS011;57052;55.602;38.096;2023-06-24T04:13:44;2.50;;;1.40;;
69779;SDS011;57052;55.602;38.096;2023-06-24T04:16:10;3.25;;;1.50;;
69779;SDS011;57052;55.602;38.096;2023-06-24T04:18:36;2.92;;;1.40;;
69779;SDS011;57052;55.602;38.096;2023-06-24T04:21:04;2.50;;;1.33;;
69779;SDS011;57052;55.602;38.096;2023-06-24T04:23:32;2.08;;;1.45;;
69779;SDS011;57052;55.602;38.096;2023-06-24T04:25:58;3.80;;;1.60;;
69779;SDS011;57052;55.602;38.096;2023-06-24T04:28:24;1.85;;;1.30;;
69779;SDS011;57052;55.602;38.096;2023-06-24T04:30:49;2.38;;;1.45;;
69779;SDS011;57052;55.602;38.096;2023-06-24T04:33:15;3.00;;;1.60;;
69779;SDS011;57052;55.602;38.096;2023-06-24T04:35:41;3.13;;;1.70;;
69779;SDS011;57052;55.602;38.096;2023-06-24T04:38:06;2.50;;;1.60;;
69779;SDS011;57052;55.602;38.096;2023-06-24T04:40:32;4.55;;;1.70;;
69779;SDS011;57052;55.602;38.096;2023-06-24T04:42:58;2.95;;;1.77;;
69779;SDS011;57052;55.602;38.096;2023-06-24T04:45:23;2.92;;;1.65;;
69779;SDS011;57052;55.602;38.096;2023-06-24T04:47:49;2.35;;;1.85;;
69779;SDS011;57052;55.602;38.096;2023-06-24T04:50:15;2.92;;;1.80;;
69779;SDS011;57052;55.602;38.096;2023-06-24T04:52:40;4.18;;;2.00;;
69779;SDS011;57052;55.602;38.096;2023-06-24T04:55:06;3.30;;;1.80;;
69779;SDS011;57052;55.602;38.096;2023-06-24T04:57:32;2.58;;;1.70;;
69779;SDS011;57052;55.602;38.096;2023-06-24T05:00:01;2.53;;;1.60;;
69779;SDS011;57052;55.602;38.096;2023-06-24T05:02:32;4.72;;;2.00;;
69779;SDS011;57052;55.602;38.096;2023-06-24T05:04:57;2.95;;;1.48;;
69779;SDS011;57052;55.602;38.096;2023-06-24T05:07:23;1.33;;;1.10;;
69779;SDS011;57052;55.602;38.096;2023-06-24T05:09:49;1.70;;;1.30;;
69779;SDS011;57052;55.602;38.096;2023-06-24T05:12:16;2.67;;;1.30;;
69779;SDS011;57052;55.602;38.096;2023-06-24T05:14:42;1.95;;;1.25;;
69779;SDS011;57052;55.602;38.096;2023-06-24T05:17:07;1.58;;;1.35;;
69779;SDS011;57052;55.602;38.096;2023-06-24T05:19:33;1.50;;;1.35;;
69779;SDS011;57052;55.602;38.096;2023-06-24T05:21:59;1.58;;;1.20;;
69779;SDS011;57052;55.602;38.096;2023-06-24T05:24:24;1.60;;;1.30;;
69779;SDS011;57052;55.602;38.096;2023-06-24T05:26:50;2.45;;;1.45;;
69779;SDS011;57052;55.602;38.096;2023-06-24T05:29:17;2.08;;;1.30;;
69779;SDS011;57052;55.602;38.096;2023-06-24T05:31:43;2.17;;;1.30;;
69779;SDS011;57052;55.602;38.096;2023-06-24T05:34:09;2.47;;;1.17;;
69779;SDS011;57052;55.602;38.096;2023-06-24T05:36:34;2.65;;;1.38;;
69779;SDS011;57052;55.602;38.096;2023-06-24T05:39:00;1.77;;;1.42;;
69779;SDS011;57052;55.602;38.096;2023-06-24T05:41:26;1.70;;;1.25;;
69779;SDS011;57052;55.602;38.096;2023-06-24T05:44:05;1.95;;;1.40;;
69779;SDS011;57052;55.602;38.096;2023-06-24T05:46:32;1.83;;;1.40;;
69779;SDS011;57052;55.602;38.096;2023-06-24T05:48:58;1.83;;;1.40;;
69779;SDS011;57052;55.602;38.096;2023-06-24T05:51:24;1.92;;;1.40;;
69779;SDS011;57052;55.602;38.096;2023-06-24T05:53:49;2.63;;;1.52;;
69779;SDS011;57052;55.602;38.096;2023-06-24T05:56:15;3.33;;;1.50;;
69779;SDS011;57052;55.602;38.096;2023-06-24T05:58:41;1.48;;;1.30;;
69779;SDS011;57052;55.602;38.096;2023-06-24T06:01:07;4.97;;;1.60;;
69779;SDS011;57052;55.602;38.096;2023-06-24T06:03:34;4.43;;;1.60;;
69779;SDS011;57052;55.602;38.096;2023-06-24T06:06:00;1.88;;;1.52;;
69779;SDS011;57052;55.602;38.096;2023-06-24T06:08:25;2.90;;;1.52;;
69779;SDS011;57052;55.602;38.096;2023-06-24T06:10:51;2.70;;;1.40;;
69779;SDS011;57052;55.602;38.096;2023-06-24T06:13:17;2.67;;;1.45;;
69779;SDS011;57052;55.602;38.096;2023-06-24T06:15:42;4.38;;;1.67;;
69779;SDS011;57052;55.602;38.096;2023-06-24T06:18:08;2.63;;;1.58;;
69779;SDS011;57052;55.602;38.096;2023-06-24T06:20:34;2.55;;;1.48;;
69779;SDS011;57052;55.602;38.096;2023-06-24T06:23:00;5.82;;;1.50;;
69779;SDS011;57052;55.602;38.096;2023-06-24T06:25:25;2.20;;;1.42;;
69779;SDS011;57052;55.602;38.096;2023-06-24T06:27:51;1.92;;;1.30;;
69779;SDS011;57052;55.602;38.096;2023-06-24T06:30:17;2.38;;;1.40;;
69779;SDS011;57052;55.602;38.096;2023-06-24T06:32:42;4.13;;;1.40;;
69779;SDS011;57052;55.602;38.096;2023-06-24T06:35:08;2.20;;;1.50;;
69779;SDS011;57052;55.602;38.096;2023-06-24T06:37:34;2.35;;;1.38;;
69779;SDS011;57052;55.602;38.096;2023-06-24T06:40:00;2.75;;;1.63;;
69779;SDS011;57052;55.602;38.096;2023-06-24T06:42:25;4.45;;;1.50;;
69779;SDS011;57052;55.602;38.096;2023-06-24T06:44:51;1.80;;;1.30;;
69779;SDS011;57052;55.602;38.096;2023-06-24T06:47:17;3.05;;;1.73;;
69779;SDS011;57052;55.602;38.096;2023-06-24T06:49:42;3.65;;;1.70;;
69779;SDS011;57052;55.602;38.096;2023-06-24T06:52:08;3.38;;;1.67;;
69779;SDS011;57052;55.602;38.096;2023-06-24T06:54:34;3.25;;;1.67;;
69779;SDS011;57052;55.602;38.096;2023-06-24T06:57:03;4.05;;;1.80;;
69779;SDS011;57052;55.602;38.096;2023-06-24T06:59:32;3.35;;;2.08;;
69779;SDS011;57052;55.602;38.096;2023-06-24T07:01:58;3.38;;;1.80;;
69779;SDS011;57052;55.602;38.096;2023-06-24T07:04:24;4.72;;;1.80;;
69779;SDS011;57052;55.602;38.096;2023-06-24T07:06:50;9.13;;;5.60;;
69779;SDS011;57052;55.602;38.096;2023-06-24T07:09:16;2.97;;;1.60;;
69779;SDS011;57052;55.602;38.096;2023-06-24T07:11:42;3.28;;;1.88;;
69779;SDS011;57052;55.602;38.096;2023-06-24T07:14:08;3.40;;;2.00;;
69779;SDS011;57052;55.602;38.096;2023-06-24T07:16:34;7.97;;;2.83;;
69779;SDS011;57052;55.602;38.096;2023-06-24T07:19:00;4.68;;;2.08;;
69779;SDS011;57052;55.602;38.096;2023-06-24T07:21:25;2.60;;;1.70;;
69779;SDS011;57052;55.602;38.096;2023-06-24T07:23:51;4.50;;;1.65;;
69779;SDS011;57052;55.602;38.096;2023-06-24T07:26:17;4.68;;;1.80;;
69779;SDS011;57052;55.602;38.096;2023-06-24T07:28:42;4.22;;;1.70;;
69779;SDS011;57052;55.602;38.096;2023-06-24T07:31:08;2.25;;;1.65;;
69779;SDS011;57052;55.602;38.096;2023-06-24T07:33:34;2.47;;;1.70;;
69779;SDS011;57052;55.602;38.096;2023-06-24T07:36:00;4.68;;;1.73;;
69779;SDS011;57052;55.602;38.096;2023-06-24T07:38:27;2.22;;;1.63;;
69779;SDS011;57052;55.602;38.096;2023-06-24T07:40:53;6.45;;;1.90;;
69779;SDS011;57052;55.602;38.096;2023-06-24T07:43:19;2.78;;;1.80;;
69779;SDS011;57052;55.602;38.096;2023-06-24T07:45:45;4.22;;;1.75;;
69779;SDS011;57052;55.602;38.096;2023-06-24T07:48:10;3.28;;;1.90;;
69779;SDS011;57052;55.602;38.096;2023-06-24T07:50:37;3.03;;;1.75;;
69779;SDS011;57052;55.602;38.096;2023-06-24T07:53:05;3.13;;;1.77;;
69779;SDS011;57052;55.602;38.096;2023-06-24T07:55:31;2.40;;;1.60;;
69779;SDS011;57052;55.602;38.096;2023-06-24T07:57:57;3.25;;;1.77;;
69779;SDS011;57052;55.602;38.096;2023-06-24T08:00:27;5.32;;;1.90;;
69779;SDS011;57052;55.602;38.096;2023-06-24T08:02:53;3.38;;;1.67;;
69779;SDS011;57052;55.602;38.096;2023-06-24T08:05:20;3.20;;;1.90;;
69779;SDS011;57052;55.602;38.096;2023-06-24T08:07:46;3.40;;;1.85;;
69779;SDS011;57052;55.602;38.096;2023-06-24T08:10:12;3.08;;;1.65;;
69779;SDS011;57052;55.602;38.096;2023-06-24T08:12:38;3.17;;;1.70;;
69779;SDS011;57052;55.602;38.096;2023-06-24T08:15:03;3.97;;;1.80;;
69779;SDS011;57052;55.602;38.096;2023-06-24T08:17:33;3.50;;;1.90;;
69779;SDS011;57052;55.602;38.096;2023-06-24T08:19:59;2.38;;;1.40;;
69779;SDS011;57052;55.602;38.096;2023-06-24T08:22:24;2.97;;;1.80;;
69779;SDS011;57052;55.602;38.096;2023-06-24T08:24:50;3.03;;;1.67;;
69779;SDS011;57052;55.602;38.096;2023-06-24T08:27:15;2.70;;;1.70;;
69779;SDS011;57052;55.602;38.096;2023-06-24T08:29:41;3.13;;;1.60;;
69779;SDS011;57052;55.602;38.096;2023-06-24T08:32:07;3.42;;;1.75;;
69779;SDS011;57052;55.602;38.096;2023-06-24T08:34:33;2.95;;;1.45;;
69779;SDS011;57052;55.602;38.096;2023-06-24T08:36:59;2.58;;;1.60;;
69779;SDS011;57052;55.602;38.096;2023-06-24T08:39:24;2.47;;;1.60;;
69779;SDS011;57052;55.602;38.096;2023-06-24T08:41:50;2.33;;;1.50;;
69779;SDS011;57052;55.602;38.096;2023-06-24T08:44:16;2.17;;;1.50;;
69779;SDS011;57052;55.602;38.096;2023-06-24T08:46:42;3.08;;;1.60;;
69779;SDS011;57052;55.602;38.096;2023-06-24T08:49:44;2.60;;;1.70;;
69779;SDS011;57052;55.602;38.096;2023-06-24T08:52:09;4.72;;;1.70;;
69779;SDS011;57052;55.602;38.096;2023-06-24T08:54:39;4.32;;;1.63;;
69779;SDS011;57052;55.602;38.096;2023-06-24T08:57:06;2.90;;;1.55;;
69779;SDS011;57052;55.602;38.096;2023-06-24T08:59:34;3.50;;;1.70;;
69779;SDS011;57052;55.602;38.096;2023-06-24T09:02:00;2.03;;;1.40;;
69779;SDS011;57052;55.602;38.096;2023-06-24T09:04:26;2.83;;;1.40;;
69779;SDS011;57052;55.602;38.096;2023-06-24T09:06:52;4.57;;;1.83;;
69779;SDS011;57052;55.602;38.096;2023-06-24T09:09:21;2.83;;;1.70;;
69779;SDS011;57052;55.602;38.096;2023-06-24T09:11:51;3.15;;;1.70;;
69779;SDS011;57052;55.602;38.096;2023-06-24T09:14:18;2.00;;;1.70;;
69779;SDS011;57052;55.602;38.096;2023-06-24T09:16:54;2.15;;;1.50;;
69779;SDS011;57052;55.602;38.096;2023-06-24T09:19:25;2.85;;;1.60;;
69779;SDS011;57052;55.602;38.096;2023-06-24T09:22:15;2.83;;;1.92;;
69779;SDS011;57052;55.602;38.096;2023-06-24T09:24:45;4.97;;;2.15;;
69779;SDS011;57052;55.602;38.096;2023-06-24T09:27:13;2.67;;;1.90;;
69779;SDS011;57052;55.602;38.096;2023-06-24T09:29:41;4.45;;;2.67;;
69779;SDS011;57052;55.602;38.096;2023-06-24T09:32:07;4.65;;;2.55;;
69779;SDS011;57052;55.602;38.096;2023-06-24T09:34:34;3.70;;;2.50;;
69779;SDS011;57052;55.602;38.096;2023-06-24T09:37:00;4.90;;;2.30;;
69779;SDS011;57052;55.602;38.096;2023-06-24T09:39:27;5.38;;;2.50;;
69779;SDS011;57052;55.602;38.096;2023-06-24T09:41:57;3.17;;;2.15;;
69779;SDS011;57052;55.602;38.096;2023-06-24T09:44:24;3.70;;;2.15;;
69779;SDS011;57052;55.602;38.096;2023-06-24T09:46:51;3.67;;;2.33;;
69779;SDS011;57052;55.602;38.096;2023-06-24T09:49:18;3.30;;;2.25;;
69779;SDS011;57052;55.602;38.096;2023-06-24T09:51:45;4.15;;;2.88;;
69779;SDS011;57052;55.602;38.096;2023-06-24T09:54:12;4.22;;;2.72;;
69779;SDS011;57052;55.602;38.096;2023-06-24T09:56:40;3.92;;;2.70;;
69779;SDS011;57052;55.602;38.096;2023-06-24T09:59:13;4.22;;;2.63;;
69779;SDS011;57052;55.602;38.096;2023-06-24T10:01:41;5.35;;;2.90;;
69779;SDS011;57052;55.602;38.096;2023-06-24T10:04:09;4.40;;;3.10;;
69779;SDS011;57052;55.602;38.096;2023-06-24T10:06:38;5.05;;;3.13;;
69779;SDS011;57052;55.602;38.096;2023-06-24T10:09:04;4.40;;;3.28;;
69779;SDS011;57052;55.602;38.096;2023-06-24T10:11:30;6.43;;;3.50;;
69779;SDS011;57052;55.602;38.096;2023-06-24T10:13:56;5.05;;;3.67;;
69779;SDS011;57052;55.602;38.096;2023-06-24T10:16:21;4.68;;;3.55;;
69779;SDS011;57052;55.602;38.096;2023-06-24T10:18:48;5.30;;;3.80;;
69779;SDS011;57052;55.602;38.096;2023-06-24T10:21:15;4.57;;;3.50;;
69779;SDS011;57052;55.602;38.096;2023-06-24T10:26:26;4.38;;;3.45;;
69779;SDS011;57052;55.602;38.096;2023-06-24T10:36:53;6.22;;;3.63;;
69779;SDS011;57052;55.602;38.096;2023-06-24T10:47:33;5.07;;;3.50;;
69779;SDS011;57052;55.602;38.096;2023-06-24T10:50:00;5.82;;;3.70;;
69779;SDS011;57052;55.602;38.096;2023-06-24T10:52:26;4.88;;;3.40;;
69779;SDS011;57052;55.602;38.096;2023-06-24T10:54:52;4.10;;;3.13;;
69779;SDS011;57052;55.602;38.096;2023-06-24T10:57:22;4.07;;;2.85;;
69779;SDS011;57052;55.602;38.096;2023-06-24T10:59:49;4.85;;;3.60;;
69779;SDS011;57052;55.602;38.096;2023-06-24T11:02:19;5.50;;;3.95;;
69779;SDS011;57052;55.602;38.096;2023-06-24T11:04:48;4.57;;;3.60;;
69779;SDS011;57052;55.602;38.096;2023-06-24T11:07:15;6.72;;;3.88;;
69779;SDS011;57052;55.602;38.096;2023-06-24T11:09:42;5.88;;;4.03;;
69779;SDS011;57052;55.602;38.096;2023-06-24T11:12:26;6.82;;;3.60;;
69779;SDS011;57052;55.602;38.096;2023-06-24T11:14:56;7.35;;;3.85;;
69779;SDS011;57052;55.602;38.096;2023-06-24T11:17:23;5.68;;;3.60;;
69779;SDS011;57052;55.602;38.096;2023-06-24T11:19:49;5.60;;;3.50;;
69779;SDS011;57052;55.602;38.096;2023-06-24T11:22:17;5.18;;;3.80;;
69779;SDS011;57052;55.602;38.096;2023-06-24T11:24:43;5.82;;;3.85;;
69779;SDS011;57052;55.602;38.096;2023-06-24T11:27:09;5.45;;;3.63;;
69779;SDS011;57052;55.602;38.096;2023-06-24T11:29:34;5.43;;;3.53;;
69779;SDS011;57052;55.602;38.096;2023-06-24T11:32:01;6.00;;;3.03;;
69779;SDS011;57052;55.602;38.096;2023-06-24T11:34:28;4.65;;;3.15;;
69779;SDS011;57052;55.602;38.096;2023-06-24T11:36:54;5.10;;;3.08;;
69779;SDS011;57052;55.602;38.096;2023-06-24T11:39:21;4.30;;;2.80;;
69779;SDS011;57052;55.602;38.096;2023-06-24T11:41:47;4.05;;;3.10;;
69779;SDS011;57052;55.602;38.096;2023-06-24T11:44:14;5.07;;;3.20;;
69779;SDS011;57052;55.602;38.096;2023-06-24T11:46:39;4.57;;;3.20;;
69779;SDS011;57052;55.602;38.096;2023-06-24T11:49:05;4.25;;;3.10;;
69779;SDS011;57052;55.602;38.096;2023-06-24T11:51:32;5.25;;;3.30;;
69779;SDS011;57052;55.602;38.096;2023-06-24T11:53:59;5.00;;;3.70;;
69779;SDS011;57052;55.602;38.096;2023-06-24T11:56:37;4.82;;;3.38;;
69779;SDS011;57052;55.602;38.096;2023-06-24T11:59:04;4.70;;;3.30;;
69779;SDS011;57052;55.602;38.096;2023-06-24T12:01:34;6.38;;;3.60;;
69779;SDS011;57052;55.602;38.096;2023-06-24T12:04:09;6.20;;;3.63;;
69779;SDS011;57052;55.602;38.096;2023-06-24T12:06:41;4.45;;;3.50;;
69779;SDS011;57052;55.602;38.096;2023-06-24T12:09:08;6.15;;;3.70;;
69779;SDS011;57052;55.602;38.096;2023-06-24T12:11:34;4.97;;;3.40;;
69779;SDS011;57052;55.602;38.096;2023-06-24T12:14:00;5.05;;;3.53;;
69779;SDS011;57052;55.602;38.096;2023-06-24T12:16:26;5.07;;;3.50;;
69779;SDS011;57052;55.602;38.096;2023-06-24T12:18:52;6.32;;;3.85;;
69779;SDS011;57052;55.602;38.096;2023-06-24T12:21:19;5.15;;;3.58;;
69779;SDS011;57052;55.602;38.096;2023-06-24T12:23:44;4.55;;;3.42;;
69779;SDS011;57052;55.602;38.096;2023-06-24T12:26:10;5.15;;;3.63;;
69779;SDS011;57052;55.602;38.096;2023-06-24T12:28:37;6.50;;;3.60;;
69779;SDS011;57052;55.602;38.096;2023-06-24T12:31:02;5.33;;;3.33;;
69779;SDS011;57052;55.602;38.096;2023-06-24T12:33:28;5.57;;;3.75;;
69779;SDS011;57052;55.602;38.096;2023-06-24T12:35:55;5.57;;;3.70;;
69779;SDS011;57052;55.602;38.096;2023-06-24T12:38:20;6.53;;;4.05;;
69779;SDS011;57052;55.602;38.096;2023-06-24T12:40:46;6.35;;;3.95;;
69779;SDS011;57052;55.602;38.096;2023-06-24T12:43:13;7.20;;;4.20;;
69779;SDS011;57052;55.602;38.096;2023-06-24T12:45:39;5.72;;;3.60;;
69779;SDS011;57052;55.602;38.096;2023-06-24T12:48:08;6.22;;;4.25;;
69779;SDS011;57052;55.602;38.096;2023-06-24T12:50:35;5.93;;;3.65;;
69779;SDS011;57052;55.602;38.096;2023-06-24T12:53:01;6.05;;;3.90;;
69779;SDS011;57052;55.602;38.096;2023-06-24T12:55:28;5.65;;;4.00;;
69779;SDS011;57052;55.602;38.096;2023-06-24T12:57:54;6.63;;;4.05;;
69779;SDS011;57052;55.602;38.096;2023-06-24T13:00:20;6.40;;;4.15;;
69779;SDS011;57052;55.602;38.096;2023-06-24T13:02:47;6.90;;;4.28;;
69779;SDS011;57052;55.602;38.096;2023-06-24T13:05:13;6.00;;;4.18;;
69779;SDS011;57052;55.602;38.096;2023-06-24T13:07:39;7.00;;;4.05;;
69779;SDS011;57052;55.602;38.096;2023-06-24T13:10:05;6.82;;;4.00;;
69779;SDS011;57052;55.602;38.096;2023-06-24T13:12:34;6.32;;;4.00;;
69779;SDS011;57052;55.602;38.096;2023-06-24T13:15:00;7.80;;;4.07;;
69779;SDS011;57052;55.602;38.096;2023-06-24T13:17:30;6.22;;;3.95;;
69779;SDS011;57052;55.602;38.096;2023-06-24T13:19:56;5.53;;;3.90;;
69779;SDS011;57052;55.602;38.096;2023-06-24T13:22:22;7.13;;;4.05;;
69779;SDS011;57052;55.602;38.096;2023-06-24T13:24:48;6.28;;;4.00;;
69779;SDS011;57052;55.602;38.096;2023-06-24T13:27:14;6.78;;;3.90;;
69779;SDS011;57052;55.602;38.096;2023-06-24T13:29:41;7.75;;;4.28;;
69779;SDS011;57052;55.602;38.096;2023-06-24T13:32:08;5.50;;;3.88;;
69779;SDS011;57052;55.602;38.096;2023-06-24T13:34:34;5.07;;;3.58;;
69779;SDS011;57052;55.602;38.096;2023-06-24T13:37:00;6.22;;;4.35;;
69779;SDS011;57052;55.602;38.096;2023-06-24T13:39:26;8.63;;;4.63;;
69779;SDS011;57052;55.602;38.096;2023-06-24T13:41:52;7.30;;;4.07;;
69779;SDS011;57052;55.602;38.096;2023-06-24T13:44:18;6.38;;;4.20;;
69779;SDS011;57052;55.602;38.096;2023-06-24T13:46:44;7.78;;;4.50;;
69779;SDS011;57052;55.602;38.096;2023-06-24T13:49:10;5.47;;;4.20;;
69779;SDS011;57052;55.602;38.096;2023-06-24T13:51:37;7.55;;;4.22;;
69779;SDS011;57052;55.602;38.096;2023-06-24T13:54:03;5.97;;;4.15;;
69779;SDS011;57052;55.602;38.096;2023-06-24T13:56:29;5.68;;;4.13;;
69779;SDS011;57052;55.602;38.096;2023-06-24T13:58:55;5.18;;;4.13;;
69779;SDS011;57052;55.602;38.096;2023-06-24T14:01:21;5.65;;;4.05;;
69779;SDS011;57052;55.602;38.096;2023-06-24T14:03:48;6.35;;;4.18;;
69779;SDS011;57052;55.602;38.096;2023-06-24T14:06:17;6.30;;;3.88;;
69779;SDS011;57052;55.602;38.096;2023-06-24T14:08:44;5.13;;;3.70;;
69779;SDS011;57052;55.602;38.096;2023-06-24T14:11:10;6.38;;;4.22;;
69779;SDS011;57052;55.602;38.096;2023-06-24T14:13:36;6.75;;;3.90;;
69779;SDS011;57052;55.602;38.096;2023-06-24T14:16:02;5.38;;;3.83;;
69779;SDS011;57052;55.602;38.096;2023-06-24T14:18:28;6.20;;;4.10;;
69779;SDS011;57052;55.602;38.096;2023-06-24T14:20:57;5.35;;;3.90;;
69779;SDS011;57052;55.602;38.096;2023-06-24T14:23:24;5.13;;;3.65;;
69779;SDS011;57052;55.602;38.096;2023-06-24T14:25:53;7.18;;;4.07;;
69779;SDS011;57052;55.602;38.096;2023-06-24T14:28:18;6.18;;;3.85;;
69779;SDS011;57052;55.602;38.096;2023-06-24T14:30:44;8.88;;;4.70;;
69779;SDS011;57052;55.602;38.096;2023-06-24T14:33:11;9.18;;;4.20;;
69779;SDS011;57052;55.602;38.096;2023-06-24T14:35:38;5.80;;;4.00;;
69779;SDS011;57052;55.602;38.096;2023-06-24T14:38:03;5.70;;;3.80;;
69779;SDS011;57052;55.602;38.096;2023-06-24T14:40:29;5.38;;;3.78;;
69779;SDS011;57052;55.602;38.096;2023-06-24T14:42:56;7.53;;;3.70;;
69779;SDS011;57052;55.602;38.096;2023-06-24T14:45:21;8.90;;;3.90;;
69779;SDS011;57052;55.602;38.096;2023-06-24T14:47:47;6.03;;;3.70;;
69779;SDS011;57052;55.602;38.096;2023-06-24T14:50:13;7.65;;;4.13;;
69779;SDS011;57052;55.602;38.096;2023-06-24T14:52:39;6.85;;;3.60;;
69779;SDS011;57052;55.602;38.096;2023-06-24T14:55:05;6.03;;;3.65;;
69779;SDS011;57052;55.602;38.096;2023-06-24T14:57:31;7.63;;;3.58;;
69779;SDS011;57052;55.602;38.096;2023-06-24T14:59:57;6.30;;;3.92;;
69779;SDS011;57052;55.602;38.096;2023-06-24T15:02:23;5.45;;;3.20;;
69779;SDS011;57052;55.602;38.096;2023-06-24T15:04:50;6.30;;;3.88;;
69779;SDS011;57052;55.602;38.096;2023-06-24T15:07:15;6.85;;;3.60;;
69779;SDS011;57052;55.602;38.096;2023-06-24T15:09:41;6.28;;;3.70;;
69779;SDS011;57052;55.602;38.096;2023-06-24T15:12:08;7.07;;;3.60;;
69779;SDS011;57052;55.602;38.096;2023-06-24T15:14:34;5.90;;;3.92;;
69779;SDS011;57052;55.602;38.096;2023-06-24T15:17:00;6.78;;;3.78;;